Strona główna
METAR-TAF:

METAR-TAF

Lotnisko :

Port lotniczy Shoreham

Brighton, Anglia

Szerokość geograficzna: 50-50N, Długość geograficzna: 000-17W, wysokość: 2 m

Aktualna obserwacja pogody

Raport powstał 13 godziny i 7 minut temu, godzina 19:50 UTC
Wiatr 5 kt od północ
Temperatura 2°C
Wilgotność 87%
Ciśnienie 1033 hPa
Widzialność 10 km lub więcej
Brak chmur poniżej 1500 m i brak chmur cumulonimbus

METAR: EGKA 181950Z 35005KT CAVOK 02/00 Q1033

czas: 08:57 (08:57 UTC)

Prognoza

Raport powstał 15 godziny i 59 minut temu, godzina 16:58 UTC
Prognoza ważna od 18 godzina 18 UTC do 18 godzina 20 UTC
Wiatr 7 kt od północno-północny zachód
Widzialność 10 km lub więcej
Mało chmury na wysokości 3000 ft

TAF: EGKA 181658Z 1818/1820 34007KT 9999 FEW030

Obserwacja i prognoza pogody dla ponad 4000 lotnisk (raport METAR i TAF).

Dostępne stacje oznaczono żółtymi i czerwonymi punktami na mapie.

Najedź kursorem aby zobaczyć nazwę stacji.

Kliknij aby zobaczyć obserwacje i prognozy pogody.

Aby zmienić mapę: kliknij na zielony przycisk z czarnym krzyżykiem, aby powiększyć; na zielony przycisk z myślnikiem, aby pomniejszyć; na zielone strzałki, aby przejść do map sąsiednich.


METAR-TAF: